createdAt,value
2023-04-07T00:00:57.766Z,2.44
2023-04-07T00:04:00.186Z,2.42
2023-04-07T00:07:02.653Z,2.54
2023-04-07T00:10:05.624Z,2.52
2023-04-07T00:13:07.811Z,2.48
2023-04-07T00:16:10.179Z,2.44
2023-04-07T00:19:12.423Z,2.51
2023-04-07T00:22:14.650Z,2.59
2023-04-07T00:25:16.936Z,2.58
2023-04-07T00:28:19.150Z,2.56
2023-04-07T00:31:21.591Z,2.64
2023-04-07T00:34:23.792Z,2.55
2023-04-07T00:37:26.119Z,2.60
2023-04-07T00:40:28.431Z,2.58
2023-04-07T00:43:30.583Z,2.61
2023-04-07T00:46:32.821Z,2.65
2023-04-07T00:49:35.148Z,2.65
2023-04-07T00:52:37.347Z,2.55
2023-04-07T00:55:39.544Z,2.58
2023-04-07T00:58:41.800Z,2.51
2023-04-07T01:02:04.487Z,2.52
2023-04-07T01:06:01.773Z,2.54
2023-04-07T01:09:06.183Z,2.43
2023-04-07T01:12:34.205Z,2.46
2023-04-07T01:15:37.182Z,2.53
2023-04-07T01:18:39.775Z,2.53
2023-04-07T01:21:44.575Z,2.48
2023-04-07T01:25:09.825Z,2.44
2023-04-07T01:28:40.478Z,2.45
2023-04-07T01:31:43.501Z,2.47
2023-04-07T01:34:48.120Z,2.46
2023-04-07T01:37:51.359Z,2.57
2023-04-07T01:40:54.107Z,2.54
2023-04-07T01:43:56.779Z,2.53
2023-04-07T01:46:59.847Z,2.48
2023-04-07T01:50:05.389Z,2.49
2023-04-07T01:53:07.903Z,2.52
2023-04-07T01:56:10.855Z,2.42
2023-04-07T01:59:13.087Z,2.41
2023-04-07T02:02:15.504Z,2.40
2023-04-07T02:05:19.554Z,2.44
2023-04-07T02:08:22.038Z,2.37
2023-04-07T02:11:25.605Z,2.37
2023-04-07T02:14:28.289Z,2.39
2023-04-07T02:17:31.831Z,2.38
2023-04-07T02:20:35.568Z,2.40
2023-04-07T02:23:37.907Z,2.36
2023-04-07T02:26:40.961Z,2.48
2023-04-07T02:29:43.133Z,2.47
2023-04-07T02:32:45.941Z,2.51
2023-04-07T02:35:48.188Z,2.65
2023-04-07T02:38:50.476Z,2.61
2023-04-07T02:41:52.686Z,2.53
2023-04-07T02:44:54.863Z,2.47
2023-04-07T02:47:57.144Z,2.45
2023-04-07T02:50:59.425Z,2.41
2023-04-07T02:54:01.616Z,2.45
2023-04-07T02:57:03.902Z,2.44
2023-04-07T03:00:06.758Z,2.48
2023-04-07T03:03:09.184Z,2.51
2023-04-07T03:06:11.517Z,2.49
2023-04-07T03:09:14.132Z,2.65
2023-04-07T03:12:16.353Z,2.48
2023-04-07T03:15:18.955Z,2.67
2023-04-07T03:18:21.265Z,2.64
2023-04-07T03:21:23.612Z,2.65
2023-04-07T03:24:26.076Z,2.62
2023-04-07T03:27:28.319Z,2.57
2023-04-07T03:30:30.528Z,2.48
2023-04-07T03:33:32.689Z,2.52
2023-04-07T03:36:34.893Z,2.46
2023-04-07T03:39:37.533Z,2.43
2023-04-07T03:42:39.772Z,2.46
2023-04-07T03:45:42.635Z,2.52
2023-04-07T03:48:44.883Z,2.57
2023-04-07T03:51:47.069Z,2.63
2023-04-07T03:54:49.243Z,2.72
2023-04-07T03:57:51.498Z,2.89
2023-04-07T04:00:53.740Z,2.81
2023-04-07T04:03:56.246Z,2.76
2023-04-07T04:06:58.709Z,2.72
2023-04-07T04:10:01.071Z,2.73
2023-04-07T04:13:06.683Z,2.66
2023-04-07T04:16:09.116Z,2.65
2023-04-07T04:19:11.409Z,2.75
2023-04-07T04:22:13.958Z,2.66
2023-04-07T04:25:17.100Z,2.57
2023-04-07T04:28:19.251Z,2.58
2023-04-07T04:31:21.805Z,2.69
2023-04-07T04:34:24.049Z,2.72
2023-04-07T04:37:26.669Z,2.77
2023-04-07T04:40:28.853Z,2.75
2023-04-07T04:43:31.075Z,2.75
2023-04-07T04:46:33.462Z,2.86
2023-04-07T04:49:36.144Z,3.01
2023-04-07T04:52:39.545Z,3.00
2023-04-07T04:55:44.141Z,2.84
2023-04-07T04:58:46.645Z,2.81
2023-04-07T05:01:49.049Z,2.81
2023-04-07T05:04:51.342Z,3.01
2023-04-07T05:07:53.590Z,3.03
2023-04-07T05:10:55.961Z,3.17
2023-04-07T05:13:58.146Z,3.24
2023-04-07T05:17:00.919Z,3.23
2023-04-07T05:20:04.526Z,3.23
2023-04-07T05:23:06.956Z,3.15
2023-04-07T05:26:09.250Z,3.14
2023-04-07T05:29:11.477Z,3.12
2023-04-07T05:32:13.739Z,3.14
2023-04-07T05:35:16.164Z,3.27
2023-04-07T05:38:18.386Z,3.21
2023-04-07T05:41:20.554Z,3.37
2023-04-07T05:44:22.715Z,3.19
2023-04-07T05:47:24.974Z,3.35
2023-04-07T05:50:27.288Z,3.43
2023-04-07T05:53:29.467Z,3.47
2023-04-07T05:56:31.714Z,3.41
2023-04-07T05:59:34.791Z,3.34
2023-04-07T06:02:37.219Z,3.35
2023-04-07T06:05:43.527Z,3.53
2023-04-07T06:08:46.176Z,3.49
2023-04-07T06:11:48.384Z,3.37
2023-04-07T06:14:55.522Z,3.62
2023-04-07T06:17:57.761Z,3.63
2023-04-07T06:21:00.066Z,3.22
2023-04-07T06:24:02.276Z,3.02
2023-04-07T06:27:04.469Z,2.84
2023-04-07T06:30:07.441Z,2.61
2023-04-07T06:33:09.669Z,2.79
2023-04-07T06:36:12.049Z,2.44
2023-04-07T06:39:14.663Z,2.38
2023-04-07T06:42:16.842Z,2.72
2023-04-07T06:45:18.981Z,2.64
2023-04-07T06:48:21.228Z,2.50
2023-04-07T06:51:23.417Z,2.39
2023-04-07T06:54:25.789Z,2.40
2023-04-07T06:57:27.975Z,2.58
2023-04-07T07:00:31.097Z,2.59
2023-04-07T07:03:33.870Z,2.53
2023-04-07T07:06:36.367Z,2.70
2023-04-07T07:09:38.564Z,2.43
2023-04-07T07:12:40.853Z,2.66
2023-04-07T07:15:43.093Z,2.70
2023-04-07T07:18:45.376Z,2.72
2023-04-07T07:21:49.157Z,2.71
2023-04-07T07:24:51.400Z,2.80
2023-04-07T07:27:56.182Z,2.81
2023-04-07T07:30:58.367Z,3.05
2023-04-07T07:34:00.876Z,3.00
2023-04-07T07:37:03.070Z,2.81
2023-04-07T07:40:05.620Z,2.79
2023-04-07T07:43:07.808Z,2.69
2023-04-07T07:46:09.996Z,2.80
2023-04-07T07:49:12.195Z,2.88
2023-04-07T07:52:14.511Z,2.69
2023-04-07T07:55:16.782Z,2.89
2023-04-07T07:58:19.006Z,3.07
2023-04-07T08:01:21.472Z,3.23
2023-04-07T08:04:24.089Z,3.39
2023-04-07T08:07:27.418Z,3.39
2023-04-07T08:10:29.695Z,3.22
2023-04-07T08:13:31.921Z,3.28
2023-04-07T08:16:34.154Z,3.21
2023-04-07T08:19:36.626Z,3.05
2023-04-07T08:22:38.795Z,3.11
2023-04-07T08:25:41.064Z,3.23
2023-04-07T08:28:43.223Z,3.22
2023-04-07T08:31:45.444Z,3.05
2023-04-07T08:34:47.701Z,3.09
2023-04-07T08:37:50.393Z,3.31
2023-04-07T08:41:03.298Z,3.25
2023-04-07T08:44:07.364Z,3.43
2023-04-07T08:47:11.621Z,3.38
2023-04-07T08:50:17.587Z,3.41
2023-04-07T08:53:34.647Z,3.59
2023-04-07T08:56:40.797Z,3.69
2023-04-07T08:59:45.332Z,3.58
2023-04-07T09:02:49.410Z,3.71
2023-04-07T09:05:52.095Z,3.83
2023-04-07T09:08:55.293Z,3.73
2023-04-07T09:11:58.838Z,3.78
2023-04-07T09:15:01.423Z,3.56
2023-04-07T09:18:03.971Z,3.77
2023-04-07T09:21:07.845Z,3.68
2023-04-07T09:24:24.691Z,3.64
2023-04-07T09:27:27.094Z,3.81
2023-04-07T09:30:30.879Z,4.10
2023-04-07T09:33:34.322Z,4.04
2023-04-07T09:36:42.350Z,4.24
2023-04-07T09:39:52.244Z,4.10
2023-04-07T09:42:54.737Z,4.11
2023-04-07T09:46:14.018Z,4.07
2023-04-07T09:49:16.714Z,4.15
2023-04-07T09:52:20.676Z,4.45
2023-04-07T09:55:23.915Z,4.64
2023-04-07T09:58:26.169Z,4.47
2023-04-07T10:01:28.667Z,4.52
2023-04-07T10:04:31.357Z,4.36
2023-04-07T10:07:33.701Z,4.36
2023-04-07T10:10:37.084Z,4.77
2023-04-07T10:13:40.842Z,4.90
2023-04-07T10:16:43.554Z,4.78
2023-04-07T10:19:46.932Z,4.81
2023-04-07T10:22:51.403Z,4.89
2023-04-07T10:25:55.098Z,5.14
2023-04-07T10:29:03.012Z,4.71
2023-04-07T10:32:05.297Z,4.88
2023-04-07T10:35:07.836Z,4.90
2023-04-07T10:38:13.671Z,4.77
2023-04-07T10:41:40.059Z,4.87
2023-04-07T10:44:42.154Z,4.97
2023-04-07T10:47:59.760Z,4.94
2023-04-07T10:51:22.222Z,5.04
2023-04-07T10:54:29.015Z,4.76
2023-04-07T10:57:31.673Z,5.03
2023-04-07T11:00:33.881Z,5.17
2023-04-07T11:03:38.271Z,5.41
2023-04-07T11:06:48.068Z,5.45
2023-04-07T11:09:50.502Z,5.55
2023-04-07T11:13:07.031Z,5.56
2023-04-07T11:16:10.182Z,5.35
2023-04-07T11:19:12.369Z,5.24
2023-04-07T11:22:28.601Z,5.05
2023-04-07T11:25:33.323Z,5.05
2023-04-07T11:28:37.898Z,5.22
2023-04-07T11:31:40.343Z,5.26
2023-04-07T11:34:43.115Z,5.44
2023-04-07T11:37:45.710Z,5.72
2023-04-07T11:40:47.991Z,5.75
2023-04-07T11:43:51.258Z,5.90
2023-04-07T11:46:58.558Z,5.71
2023-04-07T11:50:01.157Z,5.74
2023-04-07T11:53:03.462Z,5.86
2023-04-07T11:56:09.956Z,6.03
2023-04-07T11:59:38.435Z,6.07
2023-04-07T12:02:41.180Z,5.91
2023-04-07T12:05:44.829Z,5.58
2023-04-07T12:08:47.002Z,5.49
2023-04-07T12:11:50.338Z,5.37
2023-04-07T12:14:52.764Z,5.31
2023-04-07T12:17:55.608Z,5.75
2023-04-07T12:20:59.084Z,5.95
2023-04-07T12:24:02.588Z,6.05
2023-04-07T12:27:04.833Z,6.11
2023-04-07T12:30:07.798Z,6.19
2023-04-07T12:33:10.118Z,6.26
2023-04-07T12:36:12.690Z,6.47
2023-04-07T12:39:15.578Z,6.45
2023-04-07T12:42:17.801Z,6.49
2023-04-07T12:45:19.998Z,6.36
2023-04-07T12:48:22.321Z,6.50
2023-04-07T12:51:24.526Z,6.47
2023-04-07T12:54:26.760Z,6.37
2023-04-07T12:57:28.933Z,6.48
2023-04-07T13:00:31.649Z,6.43
2023-04-07T13:03:34.372Z,6.34
2023-04-07T13:06:37.214Z,6.44
2023-04-07T13:09:43.380Z,6.59
2023-04-07T13:12:45.729Z,6.66
2023-04-07T13:15:47.960Z,6.64
2023-04-07T13:18:52.839Z,6.74
2023-04-07T13:21:55.113Z,6.70
2023-04-07T13:24:57.368Z,6.70
2023-04-07T13:27:59.820Z,6.78
2023-04-07T13:31:02.062Z,6.71
2023-04-07T13:34:04.377Z,6.15
2023-04-07T13:37:06.678Z,6.31
2023-04-07T13:40:09.413Z,6.35
2023-04-07T13:43:12.726Z,6.37
2023-04-07T13:46:27.800Z,6.38
2023-04-07T13:49:30.874Z,6.41
2023-04-07T13:52:35.379Z,6.41
2023-04-07T13:55:38.626Z,6.33
2023-04-07T13:58:40.794Z,6.29
2023-04-07T14:01:43.178Z,6.39
2023-04-07T14:04:45.803Z,6.43
2023-04-07T14:07:48.240Z,6.45
2023-04-07T14:10:50.848Z,6.49
2023-04-07T14:13:53.168Z,6.46
2023-04-07T14:16:55.390Z,6.29
2023-04-07T14:19:57.923Z,6.39
2023-04-07T14:23:00.108Z,6.45
2023-04-07T14:26:02.290Z,6.39
2023-04-07T14:29:04.486Z,6.34
2023-04-07T14:32:06.776Z,6.32
2023-04-07T14:35:09.697Z,6.28
2023-04-07T14:38:11.904Z,6.33
2023-04-07T14:41:14.078Z,6.42
2023-04-07T14:44:16.772Z,6.46
2023-04-07T14:47:19.015Z,6.50
2023-04-07T14:50:21.537Z,6.30
2023-04-07T14:53:23.808Z,6.38
2023-04-07T14:56:25.994Z,6.42
2023-04-07T14:59:28.272Z,6.21
2023-04-07T15:02:32.684Z,6.29
2023-04-07T15:05:36.099Z,5.96
2023-04-07T15:08:38.595Z,6.11
2023-04-07T15:11:40.817Z,5.86
2023-04-07T15:14:44.664Z,5.86
2023-04-07T15:17:46.940Z,5.86
2023-04-07T15:20:49.173Z,5.77
2023-04-07T15:23:51.631Z,5.66
2023-04-07T15:26:53.940Z,5.68
2023-04-07T15:29:56.172Z,5.70
2023-04-07T15:33:00.459Z,5.61
2023-04-07T15:36:03.487Z,5.67
2023-04-07T15:39:09.139Z,5.62
2023-04-07T15:42:12.622Z,5.47
2023-04-07T15:45:15.414Z,5.43
2023-04-07T15:48:18.074Z,5.41
2023-04-07T15:51:20.387Z,5.33
2023-04-07T15:54:22.614Z,5.20
2023-04-07T15:57:24.780Z,5.23
2023-04-07T16:00:28.074Z,5.29
2023-04-07T16:03:32.114Z,5.40
2023-04-07T16:06:34.398Z,5.41
2023-04-07T16:09:36.557Z,5.50
2023-04-07T16:12:39.686Z,5.45
2023-04-07T16:15:42.369Z,5.41
2023-04-07T16:18:45.043Z,5.30
2023-04-07T16:21:47.300Z,5.38
2023-04-07T16:24:49.453Z,5.37
2023-04-07T16:27:54.684Z,5.38
2023-04-07T16:30:56.852Z,5.53
2023-04-07T16:33:59.008Z,5.37
2023-04-07T16:37:01.376Z,5.40
2023-04-07T16:40:04.749Z,5.30
2023-04-07T16:43:09.017Z,5.27
2023-04-07T16:46:11.321Z,5.32
2023-04-07T16:49:13.610Z,5.35
2023-04-07T16:52:16.025Z,5.24
2023-04-07T16:55:18.251Z,5.25
2023-04-07T16:58:20.592Z,5.21
2023-04-07T17:01:22.965Z,5.07
2023-04-07T17:04:25.232Z,5.03
2023-04-07T17:07:27.686Z,4.96
2023-04-07T17:10:29.900Z,4.99
2023-04-07T17:13:32.229Z,5.04
2023-04-07T17:16:34.395Z,5.01
2023-04-07T17:19:36.753Z,4.97
2023-04-07T17:22:39.013Z,4.93
2023-04-07T17:25:41.234Z,4.90
2023-04-07T17:28:44.430Z,4.77
2023-04-07T17:31:49.783Z,4.78
2023-04-07T17:34:52.067Z,4.89
2023-04-07T17:37:56.402Z,4.96
2023-04-07T17:40:59.611Z,4.92
2023-04-07T17:44:02.333Z,4.65
2023-04-07T17:47:04.556Z,4.80
2023-04-07T17:50:08.709Z,4.73
2023-04-07T17:53:10.949Z,4.81
2023-04-07T17:56:13.732Z,4.80
2023-04-07T17:59:16.171Z,4.60
2023-04-07T18:02:18.522Z,4.71
2023-04-07T18:05:21.052Z,4.72
2023-04-07T18:08:23.319Z,4.65
2023-04-07T18:11:26.314Z,4.77
2023-04-07T18:14:28.820Z,4.56
2023-04-07T18:17:31.046Z,4.51
2023-04-07T18:20:33.894Z,4.45
2023-04-07T18:23:36.057Z,4.46
2023-04-07T18:26:38.248Z,4.54
2023-04-07T18:29:40.412Z,4.43
2023-04-07T18:32:43.943Z,4.44
2023-04-07T18:35:46.437Z,4.52
2023-04-07T18:38:52.931Z,4.40
2023-04-07T18:41:57.367Z,4.56
2023-04-07T18:44:59.721Z,4.52
2023-04-07T18:48:02.029Z,4.42
2023-04-07T18:51:04.281Z,4.35
2023-04-07T18:54:06.673Z,4.23
2023-04-07T18:57:08.910Z,4.25
2023-04-07T19:00:11.849Z,4.39
2023-04-07T19:03:14.259Z,4.30
2023-04-07T19:06:16.918Z,4.24
2023-04-07T19:09:19.137Z,4.28
2023-04-07T19:12:21.474Z,4.28
2023-04-07T19:15:23.688Z,4.12
2023-04-07T19:18:28.190Z,4.07
2023-04-07T19:21:31.107Z,4.23
2023-04-07T19:24:34.134Z,4.18
2023-04-07T19:27:39.559Z,4.17
2023-04-07T19:30:41.798Z,4.27
2023-04-07T19:33:44.041Z,4.19
2023-04-07T19:36:46.353Z,4.18
2023-04-07T19:40:01.736Z,4.09
2023-04-07T19:43:05.596Z,4.06
2023-04-07T19:46:08.877Z,4.00
2023-04-07T19:49:11.473Z,4.10
2023-04-07T19:52:13.767Z,4.04
2023-04-07T19:55:16.325Z,4.00
2023-04-07T19:58:20.992Z,4.01
2023-04-07T20:01:23.368Z,3.93
2023-04-07T20:04:25.586Z,3.89
2023-04-07T20:07:27.828Z,3.88
2023-04-07T20:10:30.040Z,3.90
2023-04-07T20:13:34.864Z,3.85
2023-04-07T20:16:40.102Z,3.87
2023-04-07T20:19:42.506Z,3.93
2023-04-07T20:22:45.230Z,3.95
2023-04-07T20:25:47.506Z,3.98
2023-04-07T20:28:49.878Z,3.93
2023-04-07T20:31:52.232Z,3.89
2023-04-07T20:34:55.120Z,3.95
2023-04-07T20:37:57.333Z,3.69
2023-04-07T20:40:59.522Z,3.73
2023-04-07T20:44:01.748Z,3.66
2023-04-07T20:47:10.930Z,3.62
2023-04-07T20:50:13.152Z,3.56
2023-04-07T20:53:15.714Z,3.60
2023-04-07T20:56:18.530Z,3.71
2023-04-07T20:59:20.720Z,3.46
2023-04-07T21:02:23.011Z,3.66
2023-04-07T21:05:25.458Z,3.53
2023-04-07T21:08:27.892Z,3.55
2023-04-07T21:11:30.371Z,3.54
2023-04-07T21:14:32.588Z,3.56
2023-04-07T21:17:34.885Z,3.65
2023-04-07T21:20:37.696Z,3.52
2023-04-07T21:23:40.842Z,3.44
2023-04-07T21:26:43.027Z,3.37
2023-04-07T21:29:45.414Z,3.48
2023-04-07T21:32:47.669Z,3.55
2023-04-07T21:35:51.007Z,3.56
2023-04-07T21:38:53.862Z,3.40
2023-04-07T21:41:57.327Z,3.42
2023-04-07T21:44:59.613Z,3.41
2023-04-07T21:48:02.280Z,3.41
2023-04-07T21:51:04.488Z,3.30
2023-04-07T21:54:07.425Z,3.18
2023-04-07T21:57:09.619Z,3.13
2023-04-07T22:00:12.768Z,3.31
2023-04-07T22:03:15.107Z,3.07
2023-04-07T22:06:17.481Z,3.07
2023-04-07T22:09:19.732Z,3.10
2023-04-07T22:12:21.909Z,2.93
2023-04-07T22:15:24.085Z,2.89
2023-04-07T22:18:26.510Z,2.93
2023-04-07T22:21:28.688Z,2.78
2023-04-07T22:24:30.931Z,2.87
2023-04-07T22:27:33.203Z,2.87
2023-04-07T22:30:35.422Z,3.04
2023-04-07T22:33:37.830Z,3.10
2023-04-07T22:36:40.033Z,3.15
2023-04-07T22:39:42.377Z,3.16
2023-04-07T22:42:44.683Z,3.21
2023-04-07T22:45:46.800Z,3.09
2023-04-07T22:48:49.179Z,3.14
2023-04-07T22:51:51.653Z,3.27
2023-04-07T22:54:53.945Z,3.37
2023-04-07T22:57:56.146Z,3.23
2023-04-07T23:00:58.443Z,3.22
2023-04-07T23:04:00.970Z,3.12
2023-04-07T23:07:03.174Z,3.28
2023-04-07T23:10:07.776Z,3.28
2023-04-07T23:13:09.963Z,3.13
2023-04-07T23:16:13.222Z,3.23
2023-04-07T23:19:15.910Z,3.25
2023-04-07T23:22:18.135Z,3.23
2023-04-07T23:25:21.166Z,3.22
2023-04-07T23:28:23.420Z,3.23
2023-04-07T23:31:25.682Z,3.30
2023-04-07T23:34:28.365Z,3.36
2023-04-07T23:37:30.804Z,3.33
2023-04-07T23:40:32.975Z,3.32
2023-04-07T23:43:35.807Z,3.48
2023-04-07T23:46:38.412Z,3.58
2023-04-07T23:49:40.582Z,3.44
2023-04-07T23:52:44.088Z,3.53
2023-04-07T23:55:46.351Z,3.53
2023-04-07T23:58:48.856Z,3.43
